Terminal Aerodrome Forecast
Issued by NWS Cleveland, OH

Home | Current Version | Previous Version | Text Only | Print | Product List | Glossary Off
Versions: 1 2 3 4 5 6 7 8 9 10 11 12 13 14

000
FTUS41 KCLE 252324
TAFERI
TAF
KERI 252324Z 2600/2624 05008KT P6SM SKC
     FM260200 14008KT P6SM SCT250
     FM261700 23012KT 5SM -SHRA OVC025
     FM262100 28015G25KT P6SM BKN070=

USA.gov is the U.S. government's official web portal to all federal, state and local government web resources and services.